Time;durP1;ratioP1;P1;durP2;ratioP2;P2;SDS_P1;SDS_P2;PMS_P1;PMS_P2;Temp;Humidity;BMP_temperature;BMP_pressure;BME280_temperature;BME280_humidity;BME280_pressure;Samples;Min_cycle;Max_cycle;Signal;HPM_P1;HPM_P2
2023/01/29 00:02:03;;;;;;;14.60;10.50;;;;;;;-1.86;81.80;99711.00;221408;1257;25396;-75
2023/01/29 00:07:05;;;;;;;12.70;9.40;;;;;;;-1.90;81.70;99721.23;221563;1278;25300;-75
2023/01/29 00:12:09;;;;;;;11.70;8.80;;;;;;;-1.93;81.75;99717.09;221296;1280;22758;-75
2023/01/29 00:17:11;;;;;;;12.00;8.70;;;;;;;-1.98;81.45;99720.16;221479;1276;26719;-75
2023/01/29 00:22:13;;;;;;;12.60;8.50;;;;;;;-2.02;81.44;99719.85;221399;1278;22542;-75
2023/01/29 00:27:16;;;;;;;13.90;8.10;;;;;;;-2.04;81.42;99729.29;221516;1272;22543;-75
2023/01/29 00:32:20;;;;;;;12.20;8.20;;;;;;;-2.06;81.37;99729.04;221124;1280;24237;-75
2023/01/29 00:37:25;;;;;;;13.20;8.40;;;;;;;-2.07;81.59;99730.81;221306;1278;22614;-75
2023/01/29 00:47:48;;;;;;;13.10;9.40;;;;;;;-2.12;81.08;99731.66;221350;1278;22580;-75
2023/01/29 00:52:51;;;;;;;12.80;8.80;;;;;;;-2.15;81.20;99730.44;221401;1275;22616;-75
2023/01/29 00:57:53;;;;;;;11.20;8.00;;;;;;;-2.16;81.16;99747.05;221500;1276;22780;-75
2023/01/29 01:03:05;;;;;;;12.10;8.30;;;;;;;-2.17;81.37;99747.95;221285;1272;22647;-75
2023/01/29 01:13:41;;;;;;;9.30;7.30;;;;;;;-2.19;80.92;99757.20;221224;1279;22732;-75
2023/01/29 01:18:47;;;;;;;11.40;7.00;;;;;;;-2.25;80.31;99748.23;221506;1277;22633;-75
2023/01/29 01:23:58;;;;;;;8.30;6.10;;;;;;;-2.29;80.16;99736.70;221303;1278;22547;-75
2023/01/29 01:29:01;;;;;;;9.80;5.80;;;;;;;-2.32;79.66;99734.63;221339;1278;22641;-77
2023/01/29 01:34:10;;;;;;;7.10;5.50;;;;;;;-2.35;79.48;99737.38;221077;1280;22588;-74
2023/01/29 01:39:12;;;;;;;5.80;4.70;;;;;;;-2.36;79.21;99723.83;221351;1278;22588;-75
2023/01/29 01:44:52;;;;;;;7.20;4.70;;;;;;;-2.39;78.60;99731.77;221381;1278;22804;-75
2023/01/29 01:50:01;;;;;;;4.60;3.90;;;;;;;-2.40;78.67;99720.76;221214;1277;22622;-75
2023/01/29 01:55:06;;;;;;;4.50;3.80;;;;;;;-2.39;78.14;99726.23;221612;1280;22570;-75
2023/01/29 02:00:12;;;;;;;3.90;3.50;;;;;;;-2.41;77.49;99719.47;221397;1278;22620;-74
2023/01/29 02:10:45;;;;;;;5.10;3.80;;;;;;;-2.42;77.08;99709.67;221155;1257;25478;-75
2023/01/29 02:15:48;;;;;;;4.90;4.00;;;;;;;-2.44;76.35;99708.73;221538;1275;23795;-75
2023/01/29 02:21:24;;;;;;;5.60;4.60;;;;;;;-2.47;76.28;99705.60;221294;1280;23194;-75
2023/01/29 02:26:55;;;;;;;5.30;4.40;;;;;;;-2.47;76.28;99697.52;221493;1280;25389;-75
2023/01/29 02:32:13;;;;;;;5.50;4.20;;;;;;;-2.44;76.55;99683.92;221070;1280;22719;-76
2023/01/29 02:37:15;;;;;;;7.30;4.90;;;;;;;-2.43;76.22;99676.77;221140;1278;161334;-76
2023/01/29 02:42:27;;;;;;;6.00;4.10;;;;;;;-2.40;76.36;99680.23;221252;1276;23407;-75
2023/01/29 02:47:47;;;;;;;4.10;3.70;;;;;;;-2.37;76.33;99683.16;221451;1280;24267;-76
2023/01/29 02:53:13;;;;;;;4.50;3.60;;;;;;;-2.36;76.07;99691.22;221384;1274;24206;-76
2023/01/29 02:58:34;;;;;;;5.40;4.40;;;;;;;-2.35;76.19;99698.90;221442;1278;25376;-75
2023/01/29 03:03:48;;;;;;;4.30;3.60;;;;;;;-2.35;75.93;99706.66;221234;1278;24203;-74
2023/01/29 03:09:00;;;;;;;5.60;4.50;;;;;;;-2.34;76.17;99702.51;221299;1280;22539;-75
2023/01/29 03:14:09;;;;;;;5.40;4.50;;;;;;;-2.31;76.22;99695.42;221399;1276;24384;-76
2023/01/29 03:19:17;;;;;;;7.10;4.70;;;;;;;-2.28;76.37;99699.06;221302;1278;22659;-75
2023/01/29 03:35:57;;;;;;;7.00;5.20;;;;;;;-2.19;76.55;99708.89;221270;1280;22539;-75
2023/01/29 03:41:35;;;;;;;5.60;4.40;;;;;;;-2.15;76.56;99708.52;221345;1280;25464;-75
2023/01/29 03:46:55;;;;;;;5.60;4.00;;;;;;;-2.10;76.57;99702.92;221141;1280;22532;-75
2023/01/29 03:52:08;;;;;;;5.10;4.20;;;;;;;-2.09;76.60;99696.95;221307;1280;22628;-75
2023/01/29 03:57:39;;;;;;;6.30;4.30;;;;;;;-2.05;76.60;99688.77;221289;1278;24360;-75
2023/01/29 04:02:54;;;;;;;;;;;;;;;-2.01;76.58;99683.55;221259;1274;24234;-74
2023/01/29 04:08:07;;;;;;;5.10;3.90;;;;;;;-2.01;76.68;99681.46;221457;1276;22584;-75
2023/01/29 04:13:12;;;;;;;5.90;4.20;;;;;;;-1.98;76.68;99682.04;221146;1279;24232;-75
2023/01/29 04:18:16;;;;;;;5.10;3.90;;;;;;;-1.98;76.66;99680.63;221569;1269;25451;-74
2023/01/29 04:23:37;;;;;;;4.80;3.80;;;;;;;-1.97;76.50;99671.61;221365;1278;22555;-75
2023/01/29 04:28:53;;;;;;;5.20;3.70;;;;;;;-1.96;76.59;99661.52;221208;1280;22753;-75
2023/01/29 04:34:27;;;;;;;6.10;3.80;;;;;;;-1.90;76.60;99647.20;221182;1277;22797;-75
2023/01/29 04:40:09;;;;;;;5.70;3.70;;;;;;;-1.88;76.44;99631.02;221193;1280;24005;-75
2023/01/29 04:45:26;;;;;;;5.40;4.10;;;;;;;-1.90;76.11;99627.51;221329;1280;22597;-76
2023/01/29 04:51:04;;;;;;;4.80;3.90;;;;;;;-1.89;76.24;99623.30;221224;1280;22597;-74
2023/01/29 04:56:17;;;;;;;5.50;3.60;;;;;;;-1.85;76.51;99617.89;221359;1280;22931;-75
2023/01/29 05:01:24;;;;;;;4.90;3.50;;;;;;;-1.84;76.30;99605.23;221442;1256;25441;-75
2023/01/29 05:06:29;;;;;;;5.80;3.80;;;;;;;-1.81;76.23;99614.40;221414;1278;22689;-75
2023/01/29 05:11:33;;;;;;;4.80;3.70;;;;;;;-1.81;76.01;99617.33;221474;1277;22580;-75
2023/01/29 05:16:44;;;;;;;5.80;3.80;;;;;;;-1.82;75.91;99624.80;221446;1280;25163;-75
2023/01/29 05:21:50;;;;;;;6.80;4.40;;;;;;;-1.82;76.07;99622.92;221626;1278;22956;-75
2023/01/29 05:32:17;;;;;;;7.00;4.90;;;;;;;-1.82;76.37;99625.13;221537;1276;22635;-75
2023/01/29 05:37:19;;;;;;;6.50;5.00;;;;;;;-1.81;76.11;99624.08;221249;1275;22567;-76
2023/01/29 05:42:21;;;;;;;7.60;5.10;;;;;;;-1.81;76.06;99625.77;221218;1280;23241;-76
2023/01/29 05:47:23;;;;;;;8.00;5.50;;;;;;;-1.81;75.84;99618.73;221275;1280;24225;-74
2023/01/29 05:52:28;;;;;;;6.90;5.40;;;;;;;-1.82;75.88;99624.44;221336;1280;22553;-76
2023/01/29 05:57:31;;;;;;;7.10;5.00;;;;;;;-1.84;75.70;99625.24;221152;1280;25416;-75
2023/01/29 06:02:33;;;;;;;7.60;5.10;;;;;;;-1.85;75.78;99629.44;221274;1280;22533;-76
2023/01/29 06:07:35;;;;;;;8.10;5.40;;;;;;;-1.84;75.83;99639.43;221339;1278;25535;-75
2023/01/29 06:12:37;;;;;;;9.70;7.10;;;;;;;-1.83;76.03;99641.25;221318;1277;22600;-74
2023/01/29 06:17:41;;;;;;;11.20;7.90;;;;;;;-1.84;76.19;99642.69;221248;1278;22580;-73
2023/01/29 06:22:44;;;;;;;12.70;8.90;;;;;;;-1.90;76.22;99639.42;221438;1280;24236;-75
2023/01/29 06:27:49;;;;;;;11.40;7.70;;;;;;;-1.97;76.65;99639.48;221105;1280;24249;-74
2023/01/29 06:32:57;;;;;;;7.10;5.20;;;;;;;-2.02;76.71;99652.38;221248;1280;22551;-74
2023/01/29 06:37:59;;;;;;;6.90;5.00;;;;;;;-2.10;76.79;99657.70;221651;1280;22555;-75
2023/01/29 06:43:02;;;;;;;10.00;5.90;;;;;;;-2.20;77.01;99659.09;221600;1280;23584;-75
2023/01/29 06:48:10;;;;;;;12.30;8.10;;;;;;;-2.24;77.12;99659.17;221315;1274;22577;-75
2023/01/29 06:53:13;;;;;;;12.40;8.00;;;;;;;-2.26;77.58;99670.33;221446;1280;22575;-75
2023/01/29 06:58:15;;;;;;;13.20;9.70;;;;;;;-2.27;77.67;99668.14;221273;1275;23074;-76
2023/01/29 07:03:17;;;;;;;8.90;7.20;;;;;;;-2.26;78.28;99664.25;221477;1278;22603;-75
2023/01/29 07:08:23;;;;;;;9.20;6.40;;;;;;;-2.23;78.25;99668.90;221559;1275;22578;-74
2023/01/29 07:13:35;;;;;;;9.30;6.50;;;;;;;-2.18;78.48;99671.77;221472;1280;23405;-74
2023/01/29 07:18:37;;;;;;;8.80;5.80;;;;;;;-2.16;78.46;99671.98;221440;1278;22547;-74
2023/01/29 07:23:39;;;;;;;8.00;6.20;;;;;;;-2.10;78.49;99676.66;221317;1275;22564;-76
2023/01/29 07:28:42;;;;;;;8.20;6.30;;;;;;;-2.08;78.61;99679.47;221452;1280;23525;-76
2023/01/29 07:33:49;;;;;;;6.90;5.20;;;;;;;-2.10;78.56;99677.71;221407;1280;24269;-75
2023/01/29 07:38:52;;;;;;;7.60;5.70;;;;;;;-2.15;78.61;99673.98;221362;1278;26774;-75
2023/01/29 07:43:54;;;;;;;7.50;5.60;;;;;;;-2.20;78.55;99678.96;221381;1280;22551;-76
2023/01/29 07:48:57;;;;;;;14.40;9.90;;;;;;;-2.26;78.61;99681.87;221441;1280;25519;-76
2023/01/29 07:53:59;;;;;;;7.90;6.20;;;;;;;-2.16;79.16;99687.36;221394;1280;22657;-75
2023/01/29 07:59:02;;;;;;;7.50;5.20;;;;;;;-1.92;79.41;99697.73;221439;1277;24266;-75
2023/01/29 08:04:04;;;;;;;6.60;5.00;;;;;;;-1.67;79.36;99700.07;221217;1263;24307;-75
2023/01/29 08:09:07;;;;;;;7.10;5.10;;;;;;;-1.37;79.37;99709.59;221357;1280;22618;-74
2023/01/29 08:14:10;;;;;;;6.20;5.20;;;;;;;-1.06;79.05;99708.25;221222;1280;25435;-75
2023/01/29 08:19:12;;;;;;;7.10;6.00;;;;;;;-0.90;78.46;99710.21;221493;1277;23230;-75
2023/01/29 08:24:14;;;;;;;7.90;5.80;;;;;;;-0.86;77.93;99706.85;221510;1256;22591;-75
2023/01/29 08:29:16;;;;;;;6.20;5.40;;;;;;;-0.86;77.59;99717.73;221431;1278;22535;-75
2023/01/29 08:34:22;;;;;;;6.40;5.00;;;;;;;-0.87;77.53;99733.88;221503;1280;22616;-75
2023/01/29 08:39:24;;;;;;;8.90;5.80;;;;;;;-0.91;76.95;99737.76;221526;1280;24305;-75
2023/01/29 08:44:26;;;;;;;8.50;6.50;;;;;;;-0.95;76.84;99726.43;221415;1275;26216;-76
2023/01/29 08:49:29;;;;;;;8.80;7.00;;;;;;;-1.00;76.30;99726.39;221428;1275;22547;-76
2023/01/29 08:54:34;;;;;;;9.70;6.50;;;;;;;-1.05;76.17;99729.98;221334;1280;22715;-74
2023/01/29 08:59:38;;;;;;;9.50;6.90;;;;;;;-1.06;76.26;99723.60;221398;1278;24250;-75
2023/01/29 09:04:40;;;;;;;10.90;7.40;;;;;;;-1.03;76.31;99709.79;221328;1280;25435;-75
2023/01/29 09:09:42;;;;;;;12.20;7.50;;;;;;;-0.93;76.58;99697.24;221279;1280;22554;-75
2023/01/29 09:14:43;;;;;;;11.70;7.40;;;;;;;-0.81;76.08;99687.99;221561;1280;25500;-75
2023/01/29 09:19:51;;;;;;;8.70;6.70;;;;;;;-0.72;75.92;99684.00;221679;1280;23327;-75
2023/01/29 09:24:54;;;;;;;10.30;6.50;;;;;;;-0.61;75.85;99677.09;221580;1278;24327;-76
2023/01/29 09:29:56;;;;;;;6.40;5.00;;;;;;;-0.54;75.51;99679.77;221469;1280;24473;-75
2023/01/29 09:34:58;;;;;;;7.30;5.30;;;;;;;-0.47;74.65;99691.75;221474;1278;22540;-75
2023/01/29 09:40:00;;;;;;;5.50;4.50;;;;;;;-0.43;74.05;99700.50;221600;1277;25390;-76
2023/01/29 09:45:14;;;;;;;5.00;4.20;;;;;;;-0.45;73.54;99696.87;221435;1280;22579;-76
2023/01/29 09:50:21;;;;;;;5.40;4.00;;;;;;;-0.45;73.28;99689.77;221610;1278;22555;-75
2023/01/29 09:55:38;;;;;;;5.20;4.00;;;;;;;-0.41;73.12;99691.58;221574;1277;24281;-78
2023/01/29 10:01:12;;;;;;;6.40;5.40;;;;;;;-0.41;72.78;99681.89;221327;1278;24225;-75
2023/01/29 10:06:45;;;;;;;8.90;6.90;;;;;;;-0.51;72.06;99671.59;221482;1275;22663;-74
2023/01/29 10:12:09;;;;;;;18.40;14.50;;;;;;;-0.54;72.04;99660.23;221413;1256;23165;-77
2023/01/29 10:17:33;;;;;;;17.80;14.30;;;;;;;-0.60;71.29;99652.27;221545;1277;27641;-78
2023/01/29 10:22:58;;;;;;;14.40;12.00;;;;;;;-0.61;71.02;99632.98;221574;1278;22498;-76
2023/01/29 10:28:00;;;;;;;15.70;12.00;;;;;;;-0.55;71.27;99616.88;221514;1278;25507;-76
2023/01/29 10:33:05;;;;;;;15.90;11.20;;;;;;;-0.50;71.21;99600.09;221656;1278;24116;-76
2023/01/29 10:38:29;;;;;;;13.60;10.30;;;;;;;-0.46;71.07;99590.63;221432;1275;22533;-76
2023/01/29 10:43:42;;;;;;;13.20;11.70;;;;;;;-0.34;71.26;99581.71;221562;1278;24260;-75
2023/01/29 10:49:12;;;;;;;13.60;10.30;;;;;;;-0.29;70.67;99582.15;221328;1278;22595;-76
2023/01/29 10:54:42;;;;;;;14.80;10.70;;;;;;;-0.31;70.74;99571.34;221543;1278;25578;-77
2023/01/29 10:59:44;;;;;;;13.90;10.60;;;;;;;-0.28;70.30;99565.98;221479;1278;22729;-75
2023/01/29 11:04:48;;;;;;;10.20;7.90;;;;;;;-0.26;69.93;99553.85;221552;1280;22683;-76
2023/01/29 11:10:17;;;;;;;6.40;5.30;;;;;;;-0.18;70.32;99543.67;221360;1278;24616;-76
2023/01/29 11:15:31;;;;;;;8.20;4.30;;;;;;;-0.01;70.31;99527.95;221453;1278;22596;-75
2023/01/29 11:20:35;;;;;;;6.40;4.10;;;;;;;0.07;69.57;99519.98;221527;1280;22584;-75
2023/01/29 11:25:38;;;;;;;5.20;4.20;;;;;;;0.16;69.26;99515.02;221500;1280;22545;-76
2023/01/29 11:30:40;;;;;;;6.50;4.40;;;;;;;0.24;68.95;99516.37;221390;1278;22546;-75
2023/01/29 11:35:43;;;;;;;6.30;4.50;;;;;;;0.11;68.35;99508.84;221655;1278;22554;-75
2023/01/29 11:40:46;;;;;;;6.20;4.30;;;;;;;0.05;68.15;99496.58;221542;1276;22540;-76
2023/01/29 11:45:51;;;;;;;7.60;4.80;;;;;;;0.13;68.29;99493.79;221437;1280;22551;-76
2023/01/29 11:50:59;;;;;;;7.90;4.80;;;;;;;0.19;67.76;99486.08;221631;1280;25429;-76
2023/01/29 11:56:19;;;;;;;6.70;4.30;;;;;;;0.22;67.71;99486.38;221281;1276;22551;-75
2023/01/29 12:01:35;;;;;;;6.70;4.80;;;;;;;0.46;68.40;99490.23;221490;1278;22696;-75
2023/01/29 12:06:43;;;;;;;6.90;5.40;;;;;;;0.68;68.00;99484.90;221706;1280;23542;-77
2023/01/29 12:11:45;;;;;;;7.60;5.00;;;;;;;0.80;67.44;99478.70;221607;1280;22645;-76
2023/01/29 12:17:02;;;;;;;6.10;5.10;;;;;;;0.80;67.22;99481.09;221414;1278;22574;-76
2023/01/29 12:22:19;;;;;;;7.10;5.10;;;;;;;0.89;67.05;99470.41;221680;1280;23973;-75
2023/01/29 12:27:42;;;;;;;10.00;5.50;;;;;;;0.92;66.83;99462.02;221379;1280;22633;-75
2023/01/29 12:32:54;;;;;;;9.00;7.00;;;;;;;0.89;66.46;99453.42;221670;1278;24379;-75
2023/01/29 12:38:28;;;;;;;9.80;7.10;;;;;;;0.83;66.53;99453.00;221573;1278;22543;-75
2023/01/29 12:43:41;;;;;;;10.00;7.00;;;;;;;0.73;66.38;99448.14;221540;1276;22536;-76
2023/01/29 12:48:45;;;;;;;10.50;7.30;;;;;;;0.64;66.38;99444.30;221670;1280;22542;-76
2023/01/29 12:54:11;;;;;;;10.40;7.30;;;;;;;0.64;67.02;99443.88;221687;1266;22669;-76
2023/01/29 12:59:26;;;;;;;11.10;7.20;;;;;;;0.75;67.38;99443.89;221477;1276;25375;-77
2023/01/29 13:04:45;;;;;;;10.40;7.40;;;;;;;0.79;67.38;99436.30;221515;1278;22537;-76
2023/01/29 13:10:04;;;;;;;9.90;7.20;;;;;;;0.83;67.18;99417.27;221814;1280;22737;-75
2023/01/29 13:15:33;;;;;;;9.60;7.20;;;;;;;0.86;67.36;99411.30;221389;1280;24102;-76
2023/01/29 13:20:37;;;;;;;9.50;7.00;;;;;;;0.89;67.59;99411.08;221541;1273;25530;-75
2023/01/29 13:25:48;;;;;;;10.00;7.80;;;;;;;0.82;66.62;99419.09;221546;1276;22587;-76
2023/01/29 13:31:33;;;;;;;11.40;7.70;;;;;;;0.76;66.96;99413.12;221497;1280;24188;-76
2023/01/29 13:36:41;;;;;;;9.90;8.00;;;;;;;0.70;67.12;99399.13;221345;1270;22668;-76
2023/01/29 13:41:44;;;;;;;9.50;6.50;;;;;;;0.67;67.28;99389.63;221403;1278;22536;-76
2023/01/29 13:46:55;;;;;;;9.10;6.70;;;;;;;0.54;67.03;99386.40;221332;1280;24117;-75
2023/01/29 13:52:13;;;;;;;9.70;6.60;;;;;;;0.48;67.30;99382.18;221642;1280;25312;-76
2023/01/29 13:57:55;;;;;;;7.70;6.20;;;;;;;0.47;67.55;99372.00;221515;1278;22540;-75
2023/01/29 14:03:20;;;;;;;9.60;5.70;;;;;;;0.36;66.87;99363.27;220110;1286;22561;-76
2023/01/29 14:08:34;;;;;;;9.60;5.50;;;;;;;0.26;67.30;99364.99;221428;1280;22556;-75
2023/01/29 14:13:37;;;;;;;10.80;5.80;;;;;;;0.28;67.87;99366.59;221564;1276;24257;-75
2023/01/29 14:18:47;;;;;;;9.00;5.70;;;;;;;0.26;67.68;99366.55;221324;1278;25906;-76
2023/01/29 14:23:52;;;;;;;9.40;6.00;;;;;;;0.20;67.53;99361.83;221438;1280;22701;-75
2023/01/29 14:29:11;;;;;;;9.10;5.40;;;;;;;0.17;67.54;99361.84;221328;1280;25348;-76
2023/01/29 14:34:28;;;;;;;9.10;5.90;;;;;;;0.16;67.78;99360.19;221520;1273;22546;-75
2023/01/29 14:39:42;;;;;;;9.80;6.50;;;;;;;0.14;68.27;99363.80;221510;1280;22860;-77
2023/01/29 14:44:57;;;;;;;10.90;6.70;;;;;;;0.04;68.25;99360.04;221530;1278;22679;-74
2023/01/29 14:50:02;;;;;;;9.30;6.20;;;;;;;-0.11;68.45;99356.23;221577;1280;22658;-76
2023/01/29 14:55:10;;;;;;;10.50;6.30;;;;;;;-0.25;68.23;99358.09;221493;1278;22652;-75
2023/01/29 15:00:33;;;;;;;9.20;6.20;;;;;;;-0.39;68.48;99366.59;221215;1280;22764;-75
2023/01/29 15:05:37;;;;;;;9.00;6.40;;;;;;;-0.50;68.76;99368.73;221319;1280;25341;-76
2023/01/29 15:16:30;;;;;;;12.50;7.10;;;;;;;-0.65;69.31;99371.04;221503;1278;22792;-76
2023/01/29 15:21:32;;;;;;;10.70;6.70;;;;;;;-0.77;69.42;99361.58;221578;1273;22687;-75
2023/01/29 15:26:35;;;;;;;10.90;6.30;;;;;;;-0.88;69.75;99353.35;221577;1280;25405;-75
2023/01/29 15:31:41;;;;;;;11.60;6.70;;;;;;;-0.99;69.97;99353.41;221427;1280;25411;-75
2023/01/29 15:36:43;;;;;;;10.80;7.40;;;;;;;-1.06;70.31;99363.41;221555;1278;23792;-76
2023/01/29 15:41:46;;;;;;;10.00;6.70;;;;;;;-1.10;70.66;99350.98;221465;1263;26750;-76
2023/01/29 15:47:00;;;;;;;10.60;7.60;;;;;;;-1.15;70.82;99348.36;221351;1278;22602;-75
2023/01/29 15:52:06;;;;;;;11.80;6.40;;;;;;;-1.18;71.08;99342.33;221353;1280;24208;-75
2023/01/29 15:57:28;;;;;;;12.00;7.00;;;;;;;-1.19;71.05;99324.30;221438;1277;22568;-75
2023/01/29 16:02:33;;;;;;;12.60;7.70;;;;;;;-1.20;71.06;99320.08;221414;1279;25329;-75
2023/01/29 16:07:36;;;;;;;15.30;9.70;;;;;;;-1.21;71.50;99320.64;221593;1280;22564;-75
2023/01/29 16:12:39;;;;;;;14.40;8.30;;;;;;;-1.21;71.50;99326.33;221292;1279;22634;-75
2023/01/29 16:17:44;;;;;;;18.50;10.50;;;;;;;-1.22;71.48;99319.31;221470;1280;24254;-74
2023/01/29 16:22:46;;;;;;;15.70;9.90;;;;;;;-1.22;71.74;99312.09;221363;1280;22582;-75
2023/01/29 16:27:49;;;;;;;17.00;10.10;;;;;;;-1.24;71.49;99303.91;221325;1276;23167;-75
2023/01/29 16:32:51;;;;;;;18.20;9.80;;;;;;;-1.28;71.68;99300.38;221773;1280;23292;-76
2023/01/29 16:38:01;;;;;;;22.90;11.20;;;;;;;-1.31;71.78;99299.30;221346;1280;24180;-75
2023/01/29 16:43:19;;;;;;;;;;;;;;;-1.30;72.11;99305.13;221374;1277;22630;-75
2023/01/29 16:48:30;;;;;;;;;;;;;;;-1.27;72.23;99311.16;221570;1273;24500;-75
2023/01/29 16:53:34;;;;;;;22.60;11.80;;;;;;;-1.22;72.20;99313.64;221173;1274;22561;-75
2023/01/29 16:58:36;;;;;;;24.10;13.40;;;;;;;-1.20;72.38;99312.59;221420;1276;22702;-74
2023/01/29 17:03:40;;;;;;;25.30;13.80;;;;;;;-1.17;72.52;99312.73;221333;1273;24233;-75
2023/01/29 17:08:43;;;;;;;26.40;14.50;;;;;;;-1.13;72.58;99312.48;221250;1280;25454;-75
2023/01/29 17:13:45;;;;;;;28.80;15.20;;;;;;;-1.11;72.62;99307.73;221341;1257;22543;-76
2023/01/29 17:18:48;;;;;;;35.30;18.00;;;;;;;-1.10;72.72;99312.11;221286;1280;22543;-75
2023/01/29 17:23:51;;;;;;;32.70;15.80;;;;;;;-1.10;72.56;99302.58;221306;1280;22845;-76
2023/01/29 17:28:54;;;;;;;32.50;17.90;;;;;;;-1.10;72.48;99289.67;221428;1274;22714;-76
2023/01/29 17:33:57;;;;;;;35.80;19.10;;;;;;;-1.10;72.83;99288.08;221533;1276;24376;-76
2023/01/29 17:39:00;;;;;;;37.10;18.10;;;;;;;-1.09;72.41;99283.36;221349;1276;22537;-76
2023/01/29 17:44:01;;;;;;;34.60;18.40;;;;;;;-1.10;72.33;99282.91;221482;1256;25109;-75
2023/01/29 17:49:29;;;;;;;31.10;17.30;;;;;;;-1.11;72.58;99265.02;221323;1277;25439;-75
2023/01/29 17:54:31;;;;;;;31.00;16.60;;;;;;;-1.14;72.52;99255.84;221309;1277;22648;-76
2023/01/29 17:59:33;;;;;;;34.00;17.20;;;;;;;-1.15;72.46;99250.42;221389;1279;22605;-75
2023/01/29 18:04:35;;;;;;;30.70;16.40;;;;;;;-1.17;72.23;99253.83;221332;1279;24434;-75
2023/01/29 18:09:40;;;;;;;28.60;15.20;;;;;;;-1.17;72.65;99257.77;221393;1280;22543;-75
2023/01/29 18:14:44;;;;;;;30.80;16.70;;;;;;;-1.17;72.69;99259.20;221438;1276;25364;-75
2023/01/29 18:19:47;;;;;;;30.10;15.80;;;;;;;-1.17;72.91;99250.71;221189;1280;22643;-74
2023/01/29 18:24:49;;;;;;;30.00;16.90;;;;;;;-1.17;72.84;99244.45;221413;1274;25563;-75
2023/01/29 18:29:51;;;;;;;26.80;15.10;;;;;;;-1.16;72.95;99239.27;221393;1266;22638;-76
2023/01/29 18:34:53;;;;;;;28.20;16.50;;;;;;;-1.17;73.01;99236.55;221483;1278;25416;-75
2023/01/29 18:39:57;;;;;;;29.00;16.20;;;;;;;-1.17;72.98;99236.19;221594;1279;22646;-76
2023/01/29 18:44:59;;;;;;;26.60;15.50;;;;;;;-1.19;72.99;99239.96;221509;1275;22900;-75
2023/01/29 18:50:04;;;;;;;25.60;15.20;;;;;;;-1.20;73.31;99244.73;221352;1280;24389;-76
2023/01/29 18:55:06;;;;;;;28.10;14.60;;;;;;;-1.21;73.09;99244.29;221499;1280;22763;-75
2023/01/29 19:00:10;;;;;;;28.10;15.20;;;;;;;-1.22;73.25;99242.60;221382;1278;25529;-75
2023/01/29 19:05:14;;;;;;;28.40;16.50;;;;;;;-1.24;73.29;99236.50;221580;1278;23832;-75
2023/01/29 19:10:17;;;;;;;29.40;15.10;;;;;;;-1.25;73.47;99232.58;221297;1275;22555;-76
2023/01/29 19:15:21;;;;;;;27.90;17.40;;;;;;;-1.27;73.54;99223.39;221250;1278;23731;-77
2023/01/29 19:20:24;;;;;;;29.30;16.60;;;;;;;-1.29;73.72;99223.86;221588;1276;24282;-75
2023/01/29 19:25:29;;;;;;;26.50;16.80;;;;;;;-1.32;73.85;99212.18;221529;1278;22538;-78
2023/01/29 19:30:32;;;;;;;31.40;17.60;;;;;;;-1.37;74.03;99209.95;221319;1273;22587;-75
2023/01/29 19:35:34;;;;;;;31.20;18.00;;;;;;;-1.40;74.39;99212.39;221333;1278;22533;-77
2023/01/29 19:40:37;;;;;;;30.60;18.60;;;;;;;-1.44;74.39;99209.35;221322;1276;24231;-75
2023/01/29 19:45:40;;;;;;;29.70;17.10;;;;;;;-1.49;74.78;99209.52;221555;1271;24144;-75
2023/01/29 19:50:53;;;;;;;29.30;17.00;;;;;;;-1.54;74.78;99221.95;221447;1277;22661;-75
2023/01/29 19:56:02;;;;;;;34.20;18.40;;;;;;;-1.60;74.99;99211.77;221493;1276;22663;-74
2023/01/29 20:01:13;;;;;;;34.60;18.70;;;;;;;-1.63;75.15;99205.77;221608;1280;26764;-75
2023/01/29 20:06:21;;;;;;;31.60;18.90;;;;;;;-1.67;75.17;99204.50;221500;1280;22664;-75
2023/01/29 20:11:24;;;;;;;34.40;19.10;;;;;;;-1.71;75.03;99200.98;221266;1279;23025;-76
2023/01/29 20:16:28;;;;;;;34.90;19.40;;;;;;;-1.77;75.25;99203.39;221345;1280;23646;-76
2023/01/29 20:21:31;;;;;;;31.70;18.10;;;;;;;-1.81;75.24;99199.50;221380;1278;22572;-75
2023/01/29 20:26:33;;;;;;;30.70;18.70;;;;;;;-1.83;75.44;99196.23;221338;1270;24371;-75
2023/01/29 20:31:35;;;;;;;37.20;18.00;;;;;;;-1.87;75.36;99194.23;221458;1273;22556;-76
2023/01/29 20:36:37;;;;;;;35.60;19.50;;;;;;;-1.90;75.66;99200.25;221336;1280;22550;-75
2023/01/29 20:41:40;;;;;;;38.00;20.00;;;;;;;-1.91;75.79;99196.03;221421;1280;22666;-74
2023/01/29 20:46:42;;;;;;;37.10;21.00;;;;;;;-1.95;75.70;99189.91;221422;1276;22554;-76
2023/01/29 20:51:44;;;;;;;37.30;21.20;;;;;;;-1.97;75.98;99183.82;221273;1272;25214;-75
2023/01/29 20:56:47;;;;;;;40.30;21.40;;;;;;;-1.95;76.00;99171.30;221472;1278;22547;-75
2023/01/29 21:01:49;;;;;;;41.70;20.10;;;;;;;-1.92;76.14;99157.08;221319;1278;22667;-75
2023/01/29 21:06:51;;;;;;;37.50;20.00;;;;;;;-1.91;75.83;99143.20;221617;1276;22545;-74
2023/01/29 21:11:53;;;;;;;33.80;18.90;;;;;;;-1.91;76.02;99134.05;221246;1276;23142;-75
2023/01/29 21:16:56;;;;;;;35.30;20.40;;;;;;;-1.91;75.94;99127.18;221335;1280;23633;-75
2023/01/29 21:21:58;;;;;;;36.90;19.50;;;;;;;-1.91;76.05;99119.23;221554;1279;22540;-75
2023/01/29 21:27:00;;;;;;;34.40;20.50;;;;;;;-1.92;76.00;99112.08;221513;1276;22679;-75
2023/01/29 21:32:03;;;;;;;29.50;18.40;;;;;;;-1.96;75.96;99099.88;221304;1278;24369;-75
2023/01/29 21:37:06;;;;;;;34.30;18.90;;;;;;;-2.00;76.08;99095.85;221291;1280;23218;-75
2023/01/29 21:47:32;;;;;;;31.50;19.00;;;;;;;-2.02;76.10;99082.85;221283;1277;25372;-75
2023/01/29 21:52:39;;;;;;;34.40;17.30;;;;;;;-2.00;76.19;99087.41;221173;1275;22543;-75
2023/01/29 21:57:42;;;;;;;30.80;17.10;;;;;;;-2.00;76.04;99077.06;221381;1280;22578;-76
2023/01/29 22:02:45;;;;;;;36.20;20.40;;;;;;;-2.01;75.95;99068.70;221335;1273;25471;-75
2023/01/29 22:07:51;;;;;;;34.50;18.30;;;;;;;-2.01;76.03;99065.38;221268;1280;23350;-74
2023/01/29 22:13:00;;;;;;;39.50;20.70;;;;;;;-1.99;75.95;99060.90;221223;1280;24306;-75
2023/01/29 22:18:03;;;;;;;34.60;19.20;;;;;;;-1.97;76.09;99051.46;221310;1272;22712;-75
2023/01/29 22:23:05;;;;;;;35.90;18.80;;;;;;;-1.97;75.87;99035.61;221467;1280;22532;-75
2023/01/29 22:28:07;;;;;;;35.10;18.40;;;;;;;-2.02;75.97;99031.42;221301;1278;25457;-75
2023/01/29 22:33:10;;;;;;;32.50;19.20;;;;;;;-2.06;75.89;99028.22;221356;1280;22578;-75
2023/01/29 22:38:12;;;;;;;31.60;18.90;;;;;;;-2.10;75.81;99015.95;221521;1277;23297;-75
2023/01/29 22:43:15;;;;;;;31.80;18.00;;;;;;;-2.11;75.63;99007.08;221367;1280;22565;-75
2023/01/29 22:48:17;;;;;;;30.80;17.70;;;;;;;-2.12;75.84;99000.54;221282;1275;25256;-75
2023/01/29 22:53:19;;;;;;;33.40;19.50;;;;;;;-2.09;75.86;99001.42;221555;1279;22658;-75
2023/01/29 22:58:24;;;;;;;27.60;16.50;;;;;;;-2.05;75.69;98997.84;221426;1280;22546;-76
2023/01/29 23:03:27;;;;;;;28.50;17.10;;;;;;;-2.05;75.48;98986.95;221366;1258;22614;-75
2023/01/29 23:08:32;;;;;;;29.00;17.50;;;;;;;-2.03;75.42;98978.17;221341;1278;22584;-75
2023/01/29 23:13:35;;;;;;;30.00;17.50;;;;;;;-2.01;75.45;98966.70;221546;1280;22679;-74
2023/01/29 23:18:41;;;;;;;28.20;16.40;;;;;;;-2.00;75.49;98957.31;221356;1278;22540;-75
2023/01/29 23:23:48;;;;;;;20.00;10.90;;;;;;;-2.02;75.33;98949.11;221545;1280;22589;-75
2023/01/29 23:28:50;;;;;;;28.00;16.20;;;;;;;-2.05;75.08;98938.42;221340;1280;22730;-75
2023/01/29 23:33:55;;;;;;;26.80;16.20;;;;;;;-2.08;75.22;98923.30;221218;1278;22962;-75
2023/01/29 23:38:57;;;;;;;28.70;17.00;;;;;;;-2.08;75.31;98912.13;221525;1272;25392;-75
2023/01/29 23:43:59;;;;;;;27.20;15.60;;;;;;;-2.08;75.33;98892.41;221337;1278;24000;-76
2023/01/29 23:49:01;;;;;;;29.00;17.70;;;;;;;-2.09;75.28;98886.35;221441;1280;22994;-75
2023/01/29 23:54:04;;;;;;;27.70;16.90;;;;;;;-2.11;75.31;98881.63;221468;1278;25296;-75
2023/01/29 23:59:07;;;;;;;29.60;18.00;;;;;;;-2.11;75.42;98867.10;221289;1280;23200;-75
